sensor_id;sensor_type;location;lat;lon;timestamp;temperature;humidity
7920;DHT22;18778;47.610;9.776;2023-02-01T00:00:46;2.20;99.90
7920;DHT22;18778;47.610;9.776;2023-02-01T00:03:11;2.20;99.90
7920;DHT22;18778;47.610;9.776;2023-02-01T00:05:38;2.10;99.90
7920;DHT22;18778;47.610;9.776;2023-02-01T00:08:04;2.20;99.90
7920;DHT22;18778;47.610;9.776;2023-02-01T00:10:29;2.40;99.90
7920;DHT22;18778;47.610;9.776;2023-02-01T00:12:55;2.30;99.90
7920;DHT22;18778;47.610;9.776;2023-02-01T00:15:20;2.40;99.90
7920;DHT22;18778;47.610;9.776;2023-02-01T00:17:46;2.40;99.90
7920;DHT22;18778;47.610;9.776;2023-02-01T00:20:11;2.50;99.90
7920;DHT22;18778;47.610;9.776;2023-02-01T00:22:37;2.60;99.90
7920;DHT22;18778;47.610;9.776;2023-02-01T00:25:03;2.70;99.90
7920;DHT22;18778;47.610;9.776;2023-02-01T00:27:28;2.80;99.90
7920;DHT22;18778;47.610;9.776;2023-02-01T00:29:55;2.70;99.90
7920;DHT22;18778;47.610;9.776;2023-02-01T00:32:21;2.80;99.90
7920;DHT22;18778;47.610;9.776;2023-02-01T00:34:46;2.80;99.90
7920;DHT22;18778;47.610;9.776;2023-02-01T00:37:12;2.90;99.90
7920;DHT22;18778;47.610;9.776;2023-02-01T00:39:37;3.00;99.90
7920;DHT22;18778;47.610;9.776;2023-02-01T00:42:03;4.30;99.90
7920;DHT22;18778;47.610;9.776;2023-02-01T00:44:29;2.90;99.90
7920;DHT22;18778;47.610;9.776;2023-02-01T00:46:58;3.00;99.90
7920;DHT22;18778;47.610;9.776;2023-02-01T00:49:24;3.10;99.90
7920;DHT22;18778;47.610;9.776;2023-02-01T00:51:50;3.10;99.90
7920;DHT22;18778;47.610;9.776;2023-02-01T00:54:15;3.10;99.90
7920;DHT22;18778;47.610;9.776;2023-02-01T00:56:41;5.20;99.90
7920;DHT22;18778;47.610;9.776;2023-02-01T00:59:10;3.10;99.90
7920;DHT22;18778;47.610;9.776;2023-02-01T01:01:36;3.10;99.90
7920;DHT22;18778;47.610;9.776;2023-02-01T01:04:01;3.00;99.90
7920;DHT22;18778;47.610;9.776;2023-02-01T01:06:29;2.90;99.90
7920;DHT22;18778;47.610;9.776;2023-02-01T01:08:56;3.00;99.90
7920;DHT22;18778;47.610;9.776;2023-02-01T01:11:25;3.00;99.90
7920;DHT22;18778;47.610;9.776;2023-02-01T01:13:52;2.90;99.90
7920;DHT22;18778;47.610;9.776;2023-02-01T01:16:19;3.00;99.90
7920;DHT22;18778;47.610;9.776;2023-02-01T01:18:45;3.00;99.90
7920;DHT22;18778;47.610;9.776;2023-02-01T01:21:13;3.00;99.90
7920;DHT22;18778;47.610;9.776;2023-02-01T01:23:39;3.00;99.90
7920;DHT22;18778;47.610;9.776;2023-02-01T01:26:06;3.00;99.90
7920;DHT22;18778;47.610;9.776;2023-02-01T01:28:32;3.00;99.90
7920;DHT22;18778;47.610;9.776;2023-02-01T01:30:58;3.00;99.90
7920;DHT22;18778;47.610;9.776;2023-02-01T01:33:23;2.90;99.90
7920;DHT22;18778;47.610;9.776;2023-02-01T01:35:49;2.80;99.90
7920;DHT22;18778;47.610;9.776;2023-02-01T01:38:14;2.80;99.90
7920;DHT22;18778;47.610;9.776;2023-02-01T01:40:40;3.80;99.90
7920;DHT22;18778;47.610;9.776;2023-02-01T01:43:14;2.80;99.90
7920;DHT22;18778;47.610;9.776;2023-02-01T01:45:40;2.70;99.90
7920;DHT22;18778;47.610;9.776;2023-02-01T01:50:36;2.70;99.90
7920;DHT22;18778;47.610;9.776;2023-02-01T01:53:04;2.70;99.90
7920;DHT22;18778;47.610;9.776;2023-02-01T01:55:32;2.80;99.90
7920;DHT22;18778;47.610;9.776;2023-02-01T01:58:05;2.90;99.90
7920;DHT22;18778;47.610;9.776;2023-02-01T02:00:32;2.70;99.90
7920;DHT22;18778;47.610;9.776;2023-02-01T02:03:14;2.70;99.90
7920;DHT22;18778;47.610;9.776;2023-02-01T02:05:41;2.70;99.90
7920;DHT22;18778;47.610;9.776;2023-02-01T02:08:06;2.70;99.90
7920;DHT22;18778;47.610;9.776;2023-02-01T02:10:32;2.50;99.90
7920;DHT22;18778;47.610;9.776;2023-02-01T02:13:17;2.60;99.90
7920;DHT22;18778;47.610;9.776;2023-02-01T02:15:59;2.60;99.90
7920;DHT22;18778;47.610;9.776;2023-02-01T02:21:56;2.80;99.90
7920;DHT22;18778;47.610;9.776;2023-02-01T02:24:47;2.80;99.90
7920;DHT22;18778;47.610;9.776;2023-02-01T02:27:32;2.80;99.90
7920;DHT22;18778;47.610;9.776;2023-02-01T02:30:24;2.80;99.90
7920;DHT22;18778;47.610;9.776;2023-02-01T02:33:30;2.80;99.90
7920;DHT22;18778;47.610;9.776;2023-02-01T02:36:05;2.80;99.90
7920;DHT22;18778;47.610;9.776;2023-02-01T02:38:54;2.70;99.90
7920;DHT22;18778;47.610;9.776;2023-02-01T02:44:48;2.80;99.90
7920;DHT22;18778;47.610;9.776;2023-02-01T02:50:09;2.80;99.90
7920;DHT22;18778;47.610;9.776;2023-02-01T02:53:18;2.80;99.90
7920;DHT22;18778;47.610;9.776;2023-02-01T02:56:05;2.90;99.90
7920;DHT22;18778;47.610;9.776;2023-02-01T02:58:50;2.90;99.90
7920;DHT22;18778;47.610;9.776;2023-02-01T03:01:37;2.90;99.90
7920;DHT22;18778;47.610;9.776;2023-02-01T03:04:22;2.80;99.90
7920;DHT22;18778;47.610;9.776;2023-02-01T03:06:48;2.80;99.90
7920;DHT22;18778;47.610;9.776;2023-02-01T03:09:31;2.90;99.90
7920;DHT22;18778;47.610;9.776;2023-02-01T03:12:02;2.90;99.90
7920;DHT22;18778;47.610;9.776;2023-02-01T03:14:52;2.90;99.90
7920;DHT22;18778;47.610;9.776;2023-02-01T03:17:27;2.80;99.90
7920;DHT22;18778;47.610;9.776;2023-02-01T03:19:59;2.90;99.90
7920;DHT22;18778;47.610;9.776;2023-02-01T03:22:28;2.80;99.90
7920;DHT22;18778;47.610;9.776;2023-02-01T03:25:09;2.80;99.90
7920;DHT22;18778;47.610;9.776;2023-02-01T03:27:42;2.90;99.90
7920;DHT22;18778;47.610;9.776;2023-02-01T03:30:27;2.90;99.90
7920;DHT22;18778;47.610;9.776;2023-02-01T03:33:00;2.80;99.90
7920;DHT22;18778;47.610;9.776;2023-02-01T03:35:30;2.80;99.90
7920;DHT22;18778;47.610;9.776;2023-02-01T03:38:18;2.90;99.90
7920;DHT22;18778;47.610;9.776;2023-02-01T03:40:48;2.80;99.90
7920;DHT22;18778;47.610;9.776;2023-02-01T03:43:17;2.90;99.90
7920;DHT22;18778;47.610;9.776;2023-02-01T03:45:47;2.80;99.90
7920;DHT22;18778;47.610;9.776;2023-02-01T03:48:16;2.70;99.90
7920;DHT22;18778;47.610;9.776;2023-02-01T03:50:47;2.60;99.90
7920;DHT22;18778;47.610;9.776;2023-02-01T03:53:17;2.80;99.90
7920;DHT22;18778;47.610;9.776;2023-02-01T03:55:43;2.70;99.90
7920;DHT22;18778;47.610;9.776;2023-02-01T03:58:18;2.80;99.90
7920;DHT22;18778;47.610;9.776;2023-02-01T04:00:50;2.80;99.90
7920;DHT22;18778;47.610;9.776;2023-02-01T04:03:16;2.90;99.90
7920;DHT22;18778;47.610;9.776;2023-02-01T04:05:41;2.90;99.90
7920;DHT22;18778;47.610;9.776;2023-02-01T04:08:07;3.00;99.90
7920;DHT22;18778;47.610;9.776;2023-02-01T04:10:32;3.00;99.90
7920;DHT22;18778;47.610;9.776;2023-02-01T04:12:58;3.00;99.90
7920;DHT22;18778;47.610;9.776;2023-02-01T04:15:24;3.00;99.90
7920;DHT22;18778;47.610;9.776;2023-02-01T04:17:49;3.10;99.90
7920;DHT22;18778;47.610;9.776;2023-02-01T04:20:15;3.00;99.90
7920;DHT22;18778;47.610;9.776;2023-02-01T04:22:41;3.20;99.90
7920;DHT22;18778;47.610;9.776;2023-02-01T04:25:07;3.00;99.60
7920;DHT22;18778;47.610;9.776;2023-02-01T04:27:33;3.20;99.60
7920;DHT22;18778;47.610;9.776;2023-02-01T04:29:59;3.20;99.90
7920;DHT22;18778;47.610;9.776;2023-02-01T04:32:24;3.20;99.90
7920;DHT22;18778;47.610;9.776;2023-02-01T04:34:50;3.10;99.60
7920;DHT22;18778;47.610;9.776;2023-02-01T04:37:15;3.10;99.90
7920;DHT22;18778;47.610;9.776;2023-02-01T04:39:41;3.20;99.60
7920;DHT22;18778;47.610;9.776;2023-02-01T04:42:06;3.10;99.70
7920;DHT22;18778;47.610;9.776;2023-02-01T04:44:32;3.10;99.60
7920;DHT22;18778;47.610;9.776;2023-02-01T04:46:57;3.10;99.80
7920;DHT22;18778;47.610;9.776;2023-02-01T04:49:23;3.10;99.80
7920;DHT22;18778;47.610;9.776;2023-02-01T04:51:50;3.10;99.70
7920;DHT22;18778;47.610;9.776;2023-02-01T04:54:16;3.10;99.60
7920;DHT22;18778;47.610;9.776;2023-02-01T04:56:41;3.10;99.70
7920;DHT22;18778;47.610;9.776;2023-02-01T04:59:07;3.10;99.70
7920;DHT22;18778;47.610;9.776;2023-02-01T05:01:32;3.10;99.50
7920;DHT22;18778;47.610;9.776;2023-02-01T05:03:58;3.00;99.50
7920;DHT22;18778;47.610;9.776;2023-02-01T05:06:24;3.10;99.90
7920;DHT22;18778;47.610;9.776;2023-02-01T05:08:50;3.00;99.90
7920;DHT22;18778;47.610;9.776;2023-02-01T05:11:15;3.10;99.90
7920;DHT22;18778;47.610;9.776;2023-02-01T05:14:00;3.10;99.90
7920;DHT22;18778;47.610;9.776;2023-02-01T05:16:26;2.80;99.90
7920;DHT22;18778;47.610;9.776;2023-02-01T05:18:52;2.90;99.90
7920;DHT22;18778;47.610;9.776;2023-02-01T05:21:18;2.90;99.90
7920;DHT22;18778;47.610;9.776;2023-02-01T05:23:44;2.90;99.90
7920;DHT22;18778;47.610;9.776;2023-02-01T05:26:28;2.90;99.90
7920;DHT22;18778;47.610;9.776;2023-02-01T05:28:54;2.80;99.90
7920;DHT22;18778;47.610;9.776;2023-02-01T05:31:21;2.90;99.90
7920;DHT22;18778;47.610;9.776;2023-02-01T05:33:47;2.90;99.90
7920;DHT22;18778;47.610;9.776;2023-02-01T05:36:13;2.80;99.90
7920;DHT22;18778;47.610;9.776;2023-02-01T05:38:39;2.90;99.90
7920;DHT22;18778;47.610;9.776;2023-02-01T05:43:30;2.90;99.80
7920;DHT22;18778;47.610;9.776;2023-02-01T05:45:56;2.90;99.90
7920;DHT22;18778;47.610;9.776;2023-02-01T05:48:21;2.90;99.90
7920;DHT22;18778;47.610;9.776;2023-02-01T05:50:47;2.90;99.40
7920;DHT22;18778;47.610;9.776;2023-02-01T05:53:13;3.00;99.90
7920;DHT22;18778;47.610;9.776;2023-02-01T05:55:38;3.00;99.90
7920;DHT22;18778;47.610;9.776;2023-02-01T05:58:05;3.00;99.90
7920;DHT22;18778;47.610;9.776;2023-02-01T06:00:31;3.00;99.70
7920;DHT22;18778;47.610;9.776;2023-02-01T06:02:56;2.90;99.70
7920;DHT22;18778;47.610;9.776;2023-02-01T06:05:22;3.00;99.90
7920;DHT22;18778;47.610;9.776;2023-02-01T06:07:48;3.00;99.90
7920;DHT22;18778;47.610;9.776;2023-02-01T06:10:15;3.00;99.90
7920;DHT22;18778;47.610;9.776;2023-02-01T06:12:41;3.00;99.90
7920;DHT22;18778;47.610;9.776;2023-02-01T06:15:08;2.90;99.90
7920;DHT22;18778;47.610;9.776;2023-02-01T06:17:33;2.80;99.90
7920;DHT22;18778;47.610;9.776;2023-02-01T06:19:59;2.10;99.80
7920;DHT22;18778;47.610;9.776;2023-02-01T06:22:24;2.80;99.90
7920;DHT22;18778;47.610;9.776;2023-02-01T06:24:50;2.80;99.90
7920;DHT22;18778;47.610;9.776;2023-02-01T06:27:15;2.70;99.80
7920;DHT22;18778;47.610;9.776;2023-02-01T06:29:41;2.70;99.90
7920;DHT22;18778;47.610;9.776;2023-02-01T06:32:07;2.80;99.70
7920;DHT22;18778;47.610;9.776;2023-02-01T06:34:32;2.70;99.50
7920;DHT22;18778;47.610;9.776;2023-02-01T06:36:58;2.70;99.30
7920;DHT22;18778;47.610;9.776;2023-02-01T06:39:23;2.80;99.00
7920;DHT22;18778;47.610;9.776;2023-02-01T06:41:49;2.80;99.10
7920;DHT22;18778;47.610;9.776;2023-02-01T06:44:16;2.80;99.10
7920;DHT22;18778;47.610;9.776;2023-02-01T06:46:42;2.70;99.90
7920;DHT22;18778;47.610;9.776;2023-02-01T06:49:07;2.70;99.30
7920;DHT22;18778;47.610;9.776;2023-02-01T06:51:34;2.70;99.40
7920;DHT22;18778;47.610;9.776;2023-02-01T06:54:00;2.60;99.30
7920;DHT22;18778;47.610;9.776;2023-02-01T06:56:25;2.80;99.20
7920;DHT22;18778;47.610;9.776;2023-02-01T06:58:51;2.60;99.00
7920;DHT22;18778;47.610;9.776;2023-02-01T07:01:17;2.70;98.90
7920;DHT22;18778;47.610;9.776;2023-02-01T07:03:46;2.70;99.20
7920;DHT22;18778;47.610;9.776;2023-02-01T07:06:12;2.80;99.40
7920;DHT22;18778;47.610;9.776;2023-02-01T07:08:37;2.60;99.40
7920;DHT22;18778;47.610;9.776;2023-02-01T07:11:05;2.60;99.30
7920;DHT22;18778;47.610;9.776;2023-02-01T07:13:31;2.70;99.20
7920;DHT22;18778;47.610;9.776;2023-02-01T07:16:04;2.70;99.20
7920;DHT22;18778;47.610;9.776;2023-02-01T07:18:30;2.60;99.30
7920;DHT22;18778;47.610;9.776;2023-02-01T07:20:57;2.60;99.50
7920;DHT22;18778;47.610;9.776;2023-02-01T07:23:22;2.50;99.50
7920;DHT22;18778;47.610;9.776;2023-02-01T07:25:48;2.60;99.70
7920;DHT22;18778;47.610;9.776;2023-02-01T07:28:14;2.60;99.90
7920;DHT22;18778;47.610;9.776;2023-02-01T07:30:40;2.50;99.90
7920;DHT22;18778;47.610;9.776;2023-02-01T07:33:06;2.50;99.90
7920;DHT22;18778;47.610;9.776;2023-02-01T07:35:32;2.50;99.90
7920;DHT22;18778;47.610;9.776;2023-02-01T07:37:58;2.40;99.80
7920;DHT22;18778;47.610;9.776;2023-02-01T07:40:24;2.40;99.90
7920;DHT22;18778;47.610;9.776;2023-02-01T07:42:55;2.50;99.90
7920;DHT22;18778;47.610;9.776;2023-02-01T07:45:21;2.50;99.90
7920;DHT22;18778;47.610;9.776;2023-02-01T07:47:47;2.50;99.90
7920;DHT22;18778;47.610;9.776;2023-02-01T07:50:12;2.60;99.90
7920;DHT22;18778;47.610;9.776;2023-02-01T07:52:38;2.60;99.90
7920;DHT22;18778;47.610;9.776;2023-02-01T07:55:03;2.40;99.90
7920;DHT22;18778;47.610;9.776;2023-02-01T07:57:29;2.50;99.90
7920;DHT22;18778;47.610;9.776;2023-02-01T07:59:55;2.50;99.90
7920;DHT22;18778;47.610;9.776;2023-02-01T08:02:43;2.30;99.90
7920;DHT22;18778;47.610;9.776;2023-02-01T08:05:09;2.50;99.90
7920;DHT22;18778;47.610;9.776;2023-02-01T08:07:34;2.60;99.90
7920;DHT22;18778;47.610;9.776;2023-02-01T08:10:00;2.50;99.90
7920;DHT22;18778;47.610;9.776;2023-02-01T08:12:26;2.70;99.90
7920;DHT22;18778;47.610;9.776;2023-02-01T08:14:52;2.70;99.90
7920;DHT22;18778;47.610;9.776;2023-02-01T08:17:19;2.70;99.90
7920;DHT22;18778;47.610;9.776;2023-02-01T08:19:45;2.70;99.90
7920;DHT22;18778;47.610;9.776;2023-02-01T08:22:10;2.70;99.90
7920;DHT22;18778;47.610;9.776;2023-02-01T08:24:36;2.80;99.90
7920;DHT22;18778;47.610;9.776;2023-02-01T08:27:05;2.80;99.90
7920;DHT22;18778;47.610;9.776;2023-02-01T08:29:30;2.80;99.90
7920;DHT22;18778;47.610;9.776;2023-02-01T08:31:56;2.90;99.90
7920;DHT22;18778;47.610;9.776;2023-02-01T08:34:22;2.90;99.90
7920;DHT22;18778;47.610;9.776;2023-02-01T08:36:47;2.90;99.90
7920;DHT22;18778;47.610;9.776;2023-02-01T08:39:13;2.90;99.90
7920;DHT22;18778;47.610;9.776;2023-02-01T08:41:39;2.90;99.90
7920;DHT22;18778;47.610;9.776;2023-02-01T08:44:05;2.90;99.90
7920;DHT22;18778;47.610;9.776;2023-02-01T08:46:31;2.90;99.90
7920;DHT22;18778;47.610;9.776;2023-02-01T08:48:56;3.00;99.90
7920;DHT22;18778;47.610;9.776;2023-02-01T08:51:23;2.90;99.90
7920;DHT22;18778;47.610;9.776;2023-02-01T08:53:49;2.90;99.90
7920;DHT22;18778;47.610;9.776;2023-02-01T08:56:16;2.90;99.90
7920;DHT22;18778;47.610;9.776;2023-02-01T08:58:43;2.90;99.90
7920;DHT22;18778;47.610;9.776;2023-02-01T09:01:11;3.00;99.90
7920;DHT22;18778;47.610;9.776;2023-02-01T09:03:37;3.00;99.90
7920;DHT22;18778;47.610;9.776;2023-02-01T09:06:05;3.10;99.90
7920;DHT22;18778;47.610;9.776;2023-02-01T09:08:31;3.20;99.90
7920;DHT22;18778;47.610;9.776;2023-02-01T09:11:01;3.10;99.90
7920;DHT22;18778;47.610;9.776;2023-02-01T09:13:27;3.10;99.90
7920;DHT22;18778;47.610;9.776;2023-02-01T09:15:53;3.10;99.90
7920;DHT22;18778;47.610;9.776;2023-02-01T09:18:19;3.10;99.90
7920;DHT22;18778;47.610;9.776;2023-02-01T09:20:44;3.10;99.90
7920;DHT22;18778;47.610;9.776;2023-02-01T09:23:10;3.10;99.90
7920;DHT22;18778;47.610;9.776;2023-02-01T09:25:39;3.20;99.90
7920;DHT22;18778;47.610;9.776;2023-02-01T09:28:05;3.10;99.90
7920;DHT22;18778;47.610;9.776;2023-02-01T09:30:32;3.10;99.90
7920;DHT22;18778;47.610;9.776;2023-02-01T09:32:58;3.10;99.90
7920;DHT22;18778;47.610;9.776;2023-02-01T09:35:23;3.20;99.90
7920;DHT22;18778;47.610;9.776;2023-02-01T09:37:49;3.10;99.90
7920;DHT22;18778;47.610;9.776;2023-02-01T09:40:15;3.20;99.90
7920;DHT22;18778;47.610;9.776;2023-02-01T09:48:20;3.40;99.90
7920;DHT22;18778;47.610;9.776;2023-02-01T09:50:57;3.40;99.90
7920;DHT22;18778;47.610;9.776;2023-02-01T09:53:37;3.40;99.90
7920;DHT22;18778;47.610;9.776;2023-02-01T09:56:12;3.50;99.90
7920;DHT22;18778;47.610;9.776;2023-02-01T09:58:49;3.50;99.90
7920;DHT22;18778;47.610;9.776;2023-02-01T10:01:20;3.70;99.90
7920;DHT22;18778;47.610;9.776;2023-02-01T10:03:47;3.60;99.90
7920;DHT22;18778;47.610;9.776;2023-02-01T10:06:47;3.70;99.90
7920;DHT22;18778;47.610;9.776;2023-02-01T10:09:20;3.90;99.90
7920;DHT22;18778;47.610;9.776;2023-02-01T10:19:52;4.40;99.90
7920;DHT22;18778;47.610;9.776;2023-02-01T10:22:39;4.50;99.90
7920;DHT22;18778;47.610;9.776;2023-02-01T10:28:13;4.60;99.90
7920;DHT22;18778;47.610;9.776;2023-02-01T10:30:44;4.60;99.90
7920;DHT22;18778;47.610;9.776;2023-02-01T10:33:25;4.70;99.90
7920;DHT22;18778;47.610;9.776;2023-02-01T10:35:55;4.90;99.90
7920;DHT22;18778;47.610;9.776;2023-02-01T10:38:24;4.90;99.90
7920;DHT22;18778;47.610;9.776;2023-02-01T10:40:53;4.70;99.90
7920;DHT22;18778;47.610;9.776;2023-02-01T10:43:20;4.90;99.90
7920;DHT22;18778;47.610;9.776;2023-02-01T10:45:46;5.00;99.90
7920;DHT22;18778;47.610;9.776;2023-02-01T10:48:12;5.10;99.90
7920;DHT22;18778;47.610;9.776;2023-02-01T10:50:51;5.10;99.90
7920;DHT22;18778;47.610;9.776;2023-02-01T10:53:24;5.10;99.90
7920;DHT22;18778;47.610;9.776;2023-02-01T10:55:52;5.10;99.90
7920;DHT22;18778;47.610;9.776;2023-02-01T10:58:27;5.30;99.90
7920;DHT22;18778;47.610;9.776;2023-02-01T11:03:41;5.40;99.90
7920;DHT22;18778;47.610;9.776;2023-02-01T11:06:21;5.40;99.90
7920;DHT22;18778;47.610;9.776;2023-02-01T11:08:53;5.40;99.80
7920;DHT22;18778;47.610;9.776;2023-02-01T11:11:21;5.40;99.90
7920;DHT22;18778;47.610;9.776;2023-02-01T11:16:47;5.30;99.90
7920;DHT22;18778;47.610;9.776;2023-02-01T11:19:15;5.20;99.90
7920;DHT22;18778;47.610;9.776;2023-02-01T11:21:42;4.90;99.90
7920;DHT22;18778;47.610;9.776;2023-02-01T11:24:29;5.10;99.90
7920;DHT22;18778;47.610;9.776;2023-02-01T11:26:57;5.10;99.90
7920;DHT22;18778;47.610;9.776;2023-02-01T11:29:24;5.10;99.90
7920;DHT22;18778;47.610;9.776;2023-02-01T11:31:56;5.10;99.90
7920;DHT22;18778;47.610;9.776;2023-02-01T11:34:28;5.30;99.90
7920;DHT22;18778;47.610;9.776;2023-02-01T11:36:58;6.10;99.90
7920;DHT22;18778;47.610;9.776;2023-02-01T11:39:29;5.30;99.90
7920;DHT22;18778;47.610;9.776;2023-02-01T11:42:14;5.20;99.90
7920;DHT22;18778;47.610;9.776;2023-02-01T11:44:45;5.30;99.90
7920;DHT22;18778;47.610;9.776;2023-02-01T11:47:25;5.30;99.90
7920;DHT22;18778;47.610;9.776;2023-02-01T11:50:02;7.50;99.90
7920;DHT22;18778;47.610;9.776;2023-02-01T12:00:44;5.50;99.70
7920;DHT22;18778;47.610;9.776;2023-02-01T12:05:59;5.50;99.90
7920;DHT22;18778;47.610;9.776;2023-02-01T12:08:53;5.40;99.10
7920;DHT22;18778;47.610;9.776;2023-02-01T12:11:48;5.40;99.40
7920;DHT22;18778;47.610;9.776;2023-02-01T12:26:07;5.10;99.80
7920;DHT22;18778;47.610;9.776;2023-02-01T12:41:57;5.00;99.90
7920;DHT22;18778;47.610;9.776;2023-02-01T12:47:12;5.10;99.90
7920;DHT22;18778;47.610;9.776;2023-02-01T12:49:52;5.00;99.80
7920;DHT22;18778;47.610;9.776;2023-02-01T12:52:26;5.30;99.50
7920;DHT22;18778;47.610;9.776;2023-02-01T12:55:00;5.40;99.10
7920;DHT22;18778;47.610;9.776;2023-02-01T12:57:40;5.40;99.30
7920;DHT22;18778;47.610;9.776;2023-02-01T13:02:46;5.40;99.10
7920;DHT22;18778;47.610;9.776;2023-02-01T13:05:19;5.30;98.80
7920;DHT22;18778;47.610;9.776;2023-02-01T13:07:59;5.30;99.10
7920;DHT22;18778;47.610;9.776;2023-02-01T13:10:47;5.30;98.60
7920;DHT22;18778;47.610;9.776;2023-02-01T13:18:46;5.40;98.30
7920;DHT22;18778;47.610;9.776;2023-02-01T13:21:17;5.30;98.50
7920;DHT22;18778;47.610;9.776;2023-02-01T13:23:46;5.30;98.20
7920;DHT22;18778;47.610;9.776;2023-02-01T13:28:52;5.40;97.30
7920;DHT22;18778;47.610;9.776;2023-02-01T13:37:21;5.30;97.20
7920;DHT22;18778;47.610;9.776;2023-02-01T13:39:59;5.30;96.90
7920;DHT22;18778;47.610;9.776;2023-02-01T13:42:34;5.20;96.50
7920;DHT22;18778;47.610;9.776;2023-02-01T13:45:04;5.20;97.20
7920;DHT22;18778;47.610;9.776;2023-02-01T13:47:39;5.30;97.20
7920;DHT22;18778;47.610;9.776;2023-02-01T13:55:43;5.30;97.40
7920;DHT22;18778;47.610;9.776;2023-02-01T14:00:42;5.80;96.80
7920;DHT22;18778;47.610;9.776;2023-02-01T14:03:13;5.30;97.00
7920;DHT22;18778;47.610;9.776;2023-02-01T14:10:59;5.30;97.10
7920;DHT22;18778;47.610;9.776;2023-02-01T14:13:37;5.30;97.20
7920;DHT22;18778;47.610;9.776;2023-02-01T14:21:23;5.30;97.80
7920;DHT22;18778;47.610;9.776;2023-02-01T14:26:24;4.90;99.00
7920;DHT22;18778;47.610;9.776;2023-02-01T14:28:56;5.00;98.90
7920;DHT22;18778;47.610;9.776;2023-02-01T14:31:35;4.70;98.90
7920;DHT22;18778;47.610;9.776;2023-02-01T14:34:13;5.50;99.30
7920;DHT22;18778;47.610;9.776;2023-02-01T14:36:47;4.90;99.70
7920;DHT22;18778;47.610;9.776;2023-02-01T14:56:11;5.00;98.10
7920;DHT22;18778;47.610;9.776;2023-02-01T14:58:47;4.90;98.60
7920;DHT22;18778;47.610;9.776;2023-02-01T15:04:10;4.90;98.30
7920;DHT22;18778;47.610;9.776;2023-02-01T15:06:38;4.90;98.80
7920;DHT22;18778;47.610;9.776;2023-02-01T15:09:11;4.80;98.00
7920;DHT22;18778;47.610;9.776;2023-02-01T15:11:58;4.80;98.20
7920;DHT22;18778;47.610;9.776;2023-02-01T15:14:25;4.80;98.40
7920;DHT22;18778;47.610;9.776;2023-02-01T15:16:50;4.70;98.00
7920;DHT22;18778;47.610;9.776;2023-02-01T15:19:20;4.80;97.80
7920;DHT22;18778;47.610;9.776;2023-02-01T15:21:49;4.70;97.70
7920;DHT22;18778;47.610;9.776;2023-02-01T15:26:45;4.60;97.20
7920;DHT22;18778;47.610;9.776;2023-02-01T15:29:13;4.60;97.30
7920;DHT22;18778;47.610;9.776;2023-02-01T15:31:45;4.70;97.30
7920;DHT22;18778;47.610;9.776;2023-02-01T15:34:12;4.50;97.00
7920;DHT22;18778;47.610;9.776;2023-02-01T15:36:38;4.70;97.20
7920;DHT22;18778;47.610;9.776;2023-02-01T15:41:49;4.80;96.60
7920;DHT22;18778;47.610;9.776;2023-02-01T15:44:31;4.70;96.60
7920;DHT22;18778;47.610;9.776;2023-02-01T15:46:58;4.70;96.50
7920;DHT22;18778;47.610;9.776;2023-02-01T15:49:32;4.70;96.50
7920;DHT22;18778;47.610;9.776;2023-02-01T15:52:01;4.70;96.50
7920;DHT22;18778;47.610;9.776;2023-02-01T15:54:39;4.70;96.60
7920;DHT22;18778;47.610;9.776;2023-02-01T15:57:06;4.80;96.70
7920;DHT22;18778;47.610;9.776;2023-02-01T15:59:42;4.70;96.50
7920;DHT22;18778;47.610;9.776;2023-02-01T16:02:36;4.50;96.10
7920;DHT22;18778;47.610;9.776;2023-02-01T16:05:05;4.70;96.40
7920;DHT22;18778;47.610;9.776;2023-02-01T16:07:32;4.70;95.70
7920;DHT22;18778;47.610;9.776;2023-02-01T16:10:00;4.60;96.00
7920;DHT22;18778;47.610;9.776;2023-02-01T16:12:54;4.70;96.50
7920;DHT22;18778;47.610;9.776;2023-02-01T16:15:23;4.60;96.50
7920;DHT22;18778;47.610;9.776;2023-02-01T16:17:49;4.50;96.30
7920;DHT22;18778;47.610;9.776;2023-02-01T16:20:15;4.60;96.20
7920;DHT22;18778;47.610;9.776;2023-02-01T16:22:40;4.70;96.40
7920;DHT22;18778;47.610;9.776;2023-02-01T16:25:06;4.60;96.20
7920;DHT22;18778;47.610;9.776;2023-02-01T16:27:32;4.50;96.30
7920;DHT22;18778;47.610;9.776;2023-02-01T16:29:57;4.50;96.80
7920;DHT22;18778;47.610;9.776;2023-02-01T16:32:23;4.40;96.60
7920;DHT22;18778;47.610;9.776;2023-02-01T16:37:20;4.60;96.60
7920;DHT22;18778;47.610;9.776;2023-02-01T16:39:46;4.40;96.90
7920;DHT22;18778;47.610;9.776;2023-02-01T16:42:13;4.50;96.90
7920;DHT22;18778;47.610;9.776;2023-02-01T16:44:39;4.50;96.90
7920;DHT22;18778;47.610;9.776;2023-02-01T16:47:14;4.50;96.80
7920;DHT22;18778;47.610;9.776;2023-02-01T16:49:42;4.20;96.90
7920;DHT22;18778;47.610;9.776;2023-02-01T16:52:16;4.50;96.40
7920;DHT22;18778;47.610;9.776;2023-02-01T16:54:43;4.40;96.60
7920;DHT22;18778;47.610;9.776;2023-02-01T16:57:17;4.50;96.30
7920;DHT22;18778;47.610;9.776;2023-02-01T16:59:43;4.20;96.10
7920;DHT22;18778;47.610;9.776;2023-02-01T17:02:13;4.50;96.10
7920;DHT22;18778;47.610;9.776;2023-02-01T17:04:39;4.30;96.40
7920;DHT22;18778;47.610;9.776;2023-02-01T17:07:05;4.50;96.30
7920;DHT22;18778;47.610;9.776;2023-02-01T17:09:38;4.50;95.90
7920;DHT22;18778;47.610;9.776;2023-02-01T17:12:04;6.10;96.70
7920;DHT22;18778;47.610;9.776;2023-02-01T17:14:37;4.50;95.80
7920;DHT22;18778;47.610;9.776;2023-02-01T17:17:04;4.40;95.80
7920;DHT22;18778;47.610;9.776;2023-02-01T17:19:30;4.50;95.70
7920;DHT22;18778;47.610;9.776;2023-02-01T17:21:57;4.40;95.40
7920;DHT22;18778;47.610;9.776;2023-02-01T17:24:27;4.40;95.60
7920;DHT22;18778;47.610;9.776;2023-02-01T17:26:52;4.40;95.70
7920;DHT22;18778;47.610;9.776;2023-02-01T17:29:19;4.40;95.80
7920;DHT22;18778;47.610;9.776;2023-02-01T17:31:53;4.20;95.70
7920;DHT22;18778;47.610;9.776;2023-02-01T17:34:19;4.50;95.90
7920;DHT22;18778;47.610;9.776;2023-02-01T17:36:46;5.20;96.80
7920;DHT22;18778;47.610;9.776;2023-02-01T17:39:13;6.00;97.10
7920;DHT22;18778;47.610;9.776;2023-02-01T17:42:00;4.40;96.90
7920;DHT22;18778;47.610;9.776;2023-02-01T17:44:25;4.40;96.40
7920;DHT22;18778;47.610;9.776;2023-02-01T17:49:17;4.40;96.10
7920;DHT22;18778;47.610;9.776;2023-02-01T17:51:42;4.40;96.40
7920;DHT22;18778;47.610;9.776;2023-02-01T17:54:12;4.30;95.90
7920;DHT22;18778;47.610;9.776;2023-02-01T17:56:38;4.40;96.10
7920;DHT22;18778;47.610;9.776;2023-02-01T17:59:03;4.40;96.20
7920;DHT22;18778;47.610;9.776;2023-02-01T18:01:29;4.40;96.00
7920;DHT22;18778;47.610;9.776;2023-02-01T18:03:54;4.40;96.10
7920;DHT22;18778;47.610;9.776;2023-02-01T18:06:24;4.30;96.00
7920;DHT22;18778;47.610;9.776;2023-02-01T18:08:55;4.30;96.10
7920;DHT22;18778;47.610;9.776;2023-02-01T18:11:22;4.40;96.10
7920;DHT22;18778;47.610;9.776;2023-02-01T18:13:51;4.40;95.70
7920;DHT22;18778;47.610;9.776;2023-02-01T18:18:46;4.40;95.80
7920;DHT22;18778;47.610;9.776;2023-02-01T18:21:13;4.40;96.50
7920;DHT22;18778;47.610;9.776;2023-02-01T18:23:39;4.30;96.70
7920;DHT22;18778;47.610;9.776;2023-02-01T18:26:04;4.20;96.00
7920;DHT22;18778;47.610;9.776;2023-02-01T18:28:30;4.30;96.20
7920;DHT22;18778;47.610;9.776;2023-02-01T18:30:56;4.40;96.40
7920;DHT22;18778;47.610;9.776;2023-02-01T18:33:22;4.40;96.80
7920;DHT22;18778;47.610;9.776;2023-02-01T18:35:48;4.30;97.10
7920;DHT22;18778;47.610;9.776;2023-02-01T18:38:13;5.50;97.50
7920;DHT22;18778;47.610;9.776;2023-02-01T18:40:45;4.20;97.00
7920;DHT22;18778;47.610;9.776;2023-02-01T18:43:13;4.30;96.50